Terminal Aerodrome Forecast
Issued by NWS Charleston, WV

Current Version | Previous Version | Graphics & Text | Print | Product List | Glossary On
Versions: 1 2 3 4 5 6 7 8 9 10 11 12 13 14 15 16 17 18 19 20 21 22 23 24 25 26
620
FTUS41 KRLX 171606 AAB
TAFEKN
TAF AMD
KEKN 171606Z 1716/1812 34004KT P6SM SCT025
     FM172000 30006KT P6SM BKN025
     FM172300 29005KT P6SM BKN010
     FM180400 28003KT P6SM BKN008
     FM181000 26004KT P6SM SCT150=

USA.gov is the U.S. government's official web portal to all federal, state and local government web resources and services.